sensor_id;sensor_type;location;lat;lon;timestamp;temperature;humidity
12769;DHT22;6448;48.916;8.990;2022-10-15T00:00:48;20.40;63.50
12769;DHT22;6448;48.916;8.990;2022-10-15T00:01:50;20.40;63.60
12769;DHT22;6448;48.916;8.990;2022-10-15T00:02:51;20.40;63.40
12769;DHT22;6448;48.916;8.990;2022-10-15T00:03:53;20.40;63.50
12769;DHT22;6448;48.916;8.990;2022-10-15T00:04:53;20.40;63.50
12769;DHT22;6448;48.916;8.990;2022-10-15T00:05:57;20.50;63.60
12769;DHT22;6448;48.916;8.990;2022-10-15T00:06:58;20.40;63.50
12769;DHT22;6448;48.916;8.990;2022-10-15T00:07:59;20.40;63.60
12769;DHT22;6448;48.916;8.990;2022-10-15T00:09:00;20.40;63.60
12769;DHT22;6448;48.916;8.990;2022-10-15T00:10:04;20.50;63.90
12769;DHT22;6448;48.916;8.990;2022-10-15T00:11:07;20.40;63.70
12769;DHT22;6448;48.916;8.990;2022-10-15T00:12:09;20.40;63.60
12769;DHT22;6448;48.916;8.990;2022-10-15T00:13:10;20.40;63.60
12769;DHT22;6448;48.916;8.990;2022-10-15T00:14:12;20.40;63.70
12769;DHT22;6448;48.916;8.990;2022-10-15T00:15:13;20.40;63.60
12769;DHT22;6448;48.916;8.990;2022-10-15T00:16:17;20.40;63.60
12769;DHT22;6448;48.916;8.990;2022-10-15T00:17:18;20.40;63.70
12769;DHT22;6448;48.916;8.990;2022-10-15T00:18:20;20.50;63.80
12769;DHT22;6448;48.916;8.990;2022-10-15T00:19:20;20.30;63.70
12769;DHT22;6448;48.916;8.990;2022-10-15T00:20:22;20.40;63.70
12769;DHT22;6448;48.916;8.990;2022-10-15T00:21:23;20.40;63.70
12769;DHT22;6448;48.916;8.990;2022-10-15T00:22:25;20.40;63.80
12769;DHT22;6448;48.916;8.990;2022-10-15T00:23:26;20.40;63.90
12769;DHT22;6448;48.916;8.990;2022-10-15T00:24:27;20.40;63.90
12769;DHT22;6448;48.916;8.990;2022-10-15T00:25:30;20.50;64.00
12769;DHT22;6448;48.916;8.990;2022-10-15T00:26:31;20.40;64.10
12769;DHT22;6448;48.916;8.990;2022-10-15T00:27:33;20.40;64.10
12769;DHT22;6448;48.916;8.990;2022-10-15T00:28:35;20.40;64.10
12769;DHT22;6448;48.916;8.990;2022-10-15T00:29:36;20.30;64.10
12769;DHT22;6448;48.916;8.990;2022-10-15T00:30:38;20.40;64.10
12769;DHT22;6448;48.916;8.990;2022-10-15T00:31:38;20.40;64.00
12769;DHT22;6448;48.916;8.990;2022-10-15T00:32:40;20.20;64.00
12769;DHT22;6448;48.916;8.990;2022-10-15T00:33:42;20.40;64.00
12769;DHT22;6448;48.916;8.990;2022-10-15T00:34:45;20.40;64.10
12769;DHT22;6448;48.916;8.990;2022-10-15T00:35:46;20.30;64.00
12769;DHT22;6448;48.916;8.990;2022-10-15T00:36:49;20.30;64.00
12769;DHT22;6448;48.916;8.990;2022-10-15T00:37:50;20.40;64.00
12769;DHT22;6448;48.916;8.990;2022-10-15T00:38:52;20.40;63.90
12769;DHT22;6448;48.916;8.990;2022-10-15T00:39:53;20.40;64.10
12769;DHT22;6448;48.916;8.990;2022-10-15T00:40:57;20.50;64.10
12769;DHT22;6448;48.916;8.990;2022-10-15T00:41:58;20.40;64.10
12769;DHT22;6448;48.916;8.990;2022-10-15T00:43:00;20.40;64.00
12769;DHT22;6448;48.916;8.990;2022-10-15T00:45:38;20.40;64.10
12769;DHT22;6448;48.916;8.990;2022-10-15T00:46:41;20.40;64.10
12769;DHT22;6448;48.916;8.990;2022-10-15T00:47:46;20.40;64.10
12769;DHT22;6448;48.916;8.990;2022-10-15T00:48:50;20.40;64.10
12769;DHT22;6448;48.916;8.990;2022-10-15T00:50:00;20.50;64.20
12769;DHT22;6448;48.916;8.990;2022-10-15T00:51:03;20.40;64.20
12769;DHT22;6448;48.916;8.990;2022-10-15T00:52:07;20.40;64.00
12769;DHT22;6448;48.916;8.990;2022-10-15T00:53:10;20.30;64.00
12769;DHT22;6448;48.916;8.990;2022-10-15T00:54:14;20.40;64.20
12769;DHT22;6448;48.916;8.990;2022-10-15T00:55:19;20.40;64.30
12769;DHT22;6448;48.916;8.990;2022-10-15T00:56:25;20.40;64.30
12769;DHT22;6448;48.916;8.990;2022-10-15T00:57:27;20.40;64.30
12769;DHT22;6448;48.916;8.990;2022-10-15T00:58:31;20.40;64.40
12769;DHT22;6448;48.916;8.990;2022-10-15T00:59:37;20.50;64.50
12769;DHT22;6448;48.916;8.990;2022-10-15T01:00:38;20.40;64.40
12769;DHT22;6448;48.916;8.990;2022-10-15T01:01:40;20.50;64.50
12769;DHT22;6448;48.916;8.990;2022-10-15T01:02:42;20.40;64.40
12769;DHT22;6448;48.916;8.990;2022-10-15T01:03:44;20.40;64.50
12769;DHT22;6448;48.916;8.990;2022-10-15T01:04:45;20.40;64.50
12769;DHT22;6448;48.916;8.990;2022-10-15T01:05:50;20.20;64.40
12769;DHT22;6448;48.916;8.990;2022-10-15T01:06:51;20.30;64.50
12769;DHT22;6448;48.916;8.990;2022-10-15T01:07:53;20.40;64.70
12769;DHT22;6448;48.916;8.990;2022-10-15T01:08:54;20.50;64.80
12769;DHT22;6448;48.916;8.990;2022-10-15T01:09:56;20.40;64.70
12769;DHT22;6448;48.916;8.990;2022-10-15T01:11:08;20.40;64.70
12769;DHT22;6448;48.916;8.990;2022-10-15T01:12:19;20.30;64.80
12769;DHT22;6448;48.916;8.990;2022-10-15T01:13:34;20.40;64.70
12769;DHT22;6448;48.916;8.990;2022-10-15T01:14:45;20.40;64.60
12769;DHT22;6448;48.916;8.990;2022-10-15T01:15:54;20.50;64.70
12769;DHT22;6448;48.916;8.990;2022-10-15T01:17:03;20.40;64.60
12769;DHT22;6448;48.916;8.990;2022-10-15T01:18:09;20.60;64.80
12769;DHT22;6448;48.916;8.990;2022-10-15T01:19:33;20.40;64.70
12769;DHT22;6448;48.916;8.990;2022-10-15T01:20:58;20.40;64.80
12769;DHT22;6448;48.916;8.990;2022-10-15T01:22:03;20.30;64.60
12769;DHT22;6448;48.916;8.990;2022-10-15T01:24:57;20.40;64.70
12769;DHT22;6448;48.916;8.990;2022-10-15T01:26:12;20.40;65.60
12769;DHT22;6448;48.916;8.990;2022-10-15T01:27:37;20.40;64.90
12769;DHT22;6448;48.916;8.990;2022-10-15T01:28:46;20.40;64.90
12769;DHT22;6448;48.916;8.990;2022-10-15T01:30:01;20.40;65.00
12769;DHT22;6448;48.916;8.990;2022-10-15T01:31:12;20.50;65.20
12769;DHT22;6448;48.916;8.990;2022-10-15T01:32:23;20.50;65.30
12769;DHT22;6448;48.916;8.990;2022-10-15T01:33:30;20.40;65.20
12769;DHT22;6448;48.916;8.990;2022-10-15T01:34:37;20.40;65.20
12769;DHT22;6448;48.916;8.990;2022-10-15T01:35:48;20.60;65.40
12769;DHT22;6448;48.916;8.990;2022-10-15T01:36:57;20.40;65.30
12769;DHT22;6448;48.916;8.990;2022-10-15T01:38:09;20.40;65.30
12769;DHT22;6448;48.916;8.990;2022-10-15T01:39:17;20.40;65.30
12769;DHT22;6448;48.916;8.990;2022-10-15T01:40:26;20.40;65.30
12769;DHT22;6448;48.916;8.990;2022-10-15T01:41:38;20.50;65.40
12769;DHT22;6448;48.916;8.990;2022-10-15T01:42:48;20.40;65.20
12769;DHT22;6448;48.916;8.990;2022-10-15T01:43:58;20.50;65.10
12769;DHT22;6448;48.916;8.990;2022-10-15T01:45:20;20.40;65.10
12769;DHT22;6448;48.916;8.990;2022-10-15T01:46:48;20.40;65.10
12769;DHT22;6448;48.916;8.990;2022-10-15T01:47:55;20.40;65.20
12769;DHT22;6448;48.916;8.990;2022-10-15T01:48:58;20.50;65.30
12769;DHT22;6448;48.916;8.990;2022-10-15T01:50:02;20.40;65.30
12769;DHT22;6448;48.916;8.990;2022-10-15T01:51:06;20.40;65.30
12769;DHT22;6448;48.916;8.990;2022-10-15T01:52:11;20.40;65.40
12769;DHT22;6448;48.916;8.990;2022-10-15T01:53:14;20.50;65.60
12769;DHT22;6448;48.916;8.990;2022-10-15T01:54:18;20.60;65.60
12769;DHT22;6448;48.916;8.990;2022-10-15T01:55:21;20.60;65.70
12769;DHT22;6448;48.916;8.990;2022-10-15T01:56:25;20.50;65.70
12769;DHT22;6448;48.916;8.990;2022-10-15T01:57:28;20.40;65.70
12769;DHT22;6448;48.916;8.990;2022-10-15T01:58:32;20.60;65.80
12769;DHT22;6448;48.916;8.990;2022-10-15T01:59:35;20.50;65.90
12769;DHT22;6448;48.916;8.990;2022-10-15T02:00:38;20.60;65.90
12769;DHT22;6448;48.916;8.990;2022-10-15T02:01:41;20.50;65.90
12769;DHT22;6448;48.916;8.990;2022-10-15T02:02:45;20.70;66.00
12769;DHT22;6448;48.916;8.990;2022-10-15T02:03:47;20.50;65.90
12769;DHT22;6448;48.916;8.990;2022-10-15T02:04:49;20.50;65.90
12769;DHT22;6448;48.916;8.990;2022-10-15T02:05:59;20.40;65.90
12769;DHT22;6448;48.916;8.990;2022-10-15T02:07:05;20.50;66.00
12769;DHT22;6448;48.916;8.990;2022-10-15T02:08:15;20.50;65.90
12769;DHT22;6448;48.916;8.990;2022-10-15T02:09:26;20.50;65.90
12769;DHT22;6448;48.916;8.990;2022-10-15T02:10:37;20.50;65.90
12769;DHT22;6448;48.916;8.990;2022-10-15T02:11:51;20.50;65.90
12769;DHT22;6448;48.916;8.990;2022-10-15T02:13:05;20.50;66.70
12769;DHT22;6448;48.916;8.990;2022-10-15T02:14:14;20.50;65.90
12769;DHT22;6448;48.916;8.990;2022-10-15T02:15:24;20.50;66.00
12769;DHT22;6448;48.916;8.990;2022-10-15T02:16:34;20.50;66.00
12769;DHT22;6448;48.916;8.990;2022-10-15T02:17:39;20.50;66.10
12769;DHT22;6448;48.916;8.990;2022-10-15T02:18:48;20.50;66.10
12769;DHT22;6448;48.916;8.990;2022-10-15T02:19:55;20.60;66.30
12769;DHT22;6448;48.916;8.990;2022-10-15T02:21:05;20.50;66.10
12769;DHT22;6448;48.916;8.990;2022-10-15T02:22:13;20.50;66.00
12769;DHT22;6448;48.916;8.990;2022-10-15T02:23:21;20.60;65.90
12769;DHT22;6448;48.916;8.990;2022-10-15T02:24:25;20.50;65.90
12769;DHT22;6448;48.916;8.990;2022-10-15T02:25:28;20.60;66.00
12769;DHT22;6448;48.916;8.990;2022-10-15T02:26:30;20.50;65.80
12769;DHT22;6448;48.916;8.990;2022-10-15T02:27:33;20.60;65.70
12769;DHT22;6448;48.916;8.990;2022-10-15T02:28:36;20.50;65.60
12769;DHT22;6448;48.916;8.990;2022-10-15T02:29:40;20.60;65.60
12769;DHT22;6448;48.916;8.990;2022-10-15T02:30:48;20.60;65.90
12769;DHT22;6448;48.916;8.990;2022-10-15T02:31:53;20.50;65.90
12769;DHT22;6448;48.916;8.990;2022-10-15T02:32:58;20.50;66.00
12769;DHT22;6448;48.916;8.990;2022-10-15T02:34:04;20.50;66.10
12769;DHT22;6448;48.916;8.990;2022-10-15T02:35:08;20.50;66.00
12769;DHT22;6448;48.916;8.990;2022-10-15T02:36:15;20.60;66.00
12769;DHT22;6448;48.916;8.990;2022-10-15T02:37:20;20.50;65.90
12769;DHT22;6448;48.916;8.990;2022-10-15T02:38:24;20.60;65.80
12769;DHT22;6448;48.916;8.990;2022-10-15T02:39:26;20.50;65.60
12769;DHT22;6448;48.916;8.990;2022-10-15T02:40:31;20.60;65.60
12769;DHT22;6448;48.916;8.990;2022-10-15T02:41:34;20.60;65.60
12769;DHT22;6448;48.916;8.990;2022-10-15T02:42:36;20.60;65.60
12769;DHT22;6448;48.916;8.990;2022-10-15T02:43:41;20.90;65.60
12769;DHT22;6448;48.916;8.990;2022-10-15T02:44:45;20.60;65.40
12769;DHT22;6448;48.916;8.990;2022-10-15T02:45:46;20.60;65.40
12769;DHT22;6448;48.916;8.990;2022-10-15T02:46:50;20.70;65.40
12769;DHT22;6448;48.916;8.990;2022-10-15T02:47:53;20.60;65.30
12769;DHT22;6448;48.916;8.990;2022-10-15T02:48:55;20.60;65.20
12769;DHT22;6448;48.916;8.990;2022-10-15T02:49:57;20.30;65.00
12769;DHT22;6448;48.916;8.990;2022-10-15T02:50:59;20.70;65.20
12769;DHT22;6448;48.916;8.990;2022-10-15T02:51:59;20.50;65.10
12769;DHT22;6448;48.916;8.990;2022-10-15T02:53:01;20.60;65.10
12769;DHT22;6448;48.916;8.990;2022-10-15T02:54:04;20.60;65.10
12769;DHT22;6448;48.916;8.990;2022-10-15T02:55:07;20.60;65.10
12769;DHT22;6448;48.916;8.990;2022-10-15T02:56:09;20.60;65.10
12769;DHT22;6448;48.916;8.990;2022-10-15T02:57:10;20.60;65.10
12769;DHT22;6448;48.916;8.990;2022-10-15T02:58:14;20.70;65.10
12769;DHT22;6448;48.916;8.990;2022-10-15T02:59:18;20.70;65.20
12769;DHT22;6448;48.916;8.990;2022-10-15T03:00:19;20.70;65.10
12769;DHT22;6448;48.916;8.990;2022-10-15T03:01:22;20.60;65.00
12769;DHT22;6448;48.916;8.990;2022-10-15T03:02:23;20.70;64.90
12769;DHT22;6448;48.916;8.990;2022-10-15T03:03:26;20.90;65.10
12769;DHT22;6448;48.916;8.990;2022-10-15T03:04:27;20.60;64.90
12769;DHT22;6448;48.916;8.990;2022-10-15T03:05:30;20.60;65.00
12769;DHT22;6448;48.916;8.990;2022-10-15T03:06:32;20.70;65.00
12769;DHT22;6448;48.916;8.990;2022-10-15T03:07:34;20.60;64.90
12769;DHT22;6448;48.916;8.990;2022-10-15T03:08:35;20.40;64.80
12769;DHT22;6448;48.916;8.990;2022-10-15T03:09:38;20.60;65.00
12769;DHT22;6448;48.916;8.990;2022-10-15T03:10:39;20.60;65.20
12769;DHT22;6448;48.916;8.990;2022-10-15T03:11:41;20.80;65.50
12769;DHT22;6448;48.916;8.990;2022-10-15T03:12:42;20.90;65.60
12769;DHT22;6448;48.916;8.990;2022-10-15T03:13:46;20.70;65.40
12769;DHT22;6448;48.916;8.990;2022-10-15T03:14:47;20.80;65.50
12769;DHT22;6448;48.916;8.990;2022-10-15T03:15:49;20.70;65.50
12769;DHT22;6448;48.916;8.990;2022-10-15T03:16:50;20.70;65.60
12769;DHT22;6448;48.916;8.990;2022-10-15T03:17:52;20.70;65.60
12769;DHT22;6448;48.916;8.990;2022-10-15T03:18:54;20.80;65.70
12769;DHT22;6448;48.916;8.990;2022-10-15T03:19:55;20.70;65.80
12769;DHT22;6448;48.916;8.990;2022-10-15T03:20:58;20.70;65.90
12769;DHT22;6448;48.916;8.990;2022-10-15T03:22:00;20.70;65.90
12769;DHT22;6448;48.916;8.990;2022-10-15T03:23:13;20.70;65.90
12769;DHT22;6448;48.916;8.990;2022-10-15T03:24:14;20.70;66.00
12769;DHT22;6448;48.916;8.990;2022-10-15T03:25:16;20.70;66.10
12769;DHT22;6448;48.916;8.990;2022-10-15T03:26:18;20.70;66.20
12769;DHT22;6448;48.916;8.990;2022-10-15T03:27:19;20.60;66.10
12769;DHT22;6448;48.916;8.990;2022-10-15T03:28:22;20.70;66.30
12769;DHT22;6448;48.916;8.990;2022-10-15T03:29:23;20.70;66.30
12769;DHT22;6448;48.916;8.990;2022-10-15T03:30:31;20.70;66.30
12769;DHT22;6448;48.916;8.990;2022-10-15T03:31:32;20.80;66.30
12769;DHT22;6448;48.916;8.990;2022-10-15T03:32:36;20.70;66.30
12769;DHT22;6448;48.916;8.990;2022-10-15T03:33:39;20.60;66.30
12769;DHT22;6448;48.916;8.990;2022-10-15T03:34:41;20.80;66.40
12769;DHT22;6448;48.916;8.990;2022-10-15T03:35:46;20.70;66.40
12769;DHT22;6448;48.916;8.990;2022-10-15T03:36:49;20.70;66.40
12769;DHT22;6448;48.916;8.990;2022-10-15T03:37:51;20.60;66.40
12769;DHT22;6448;48.916;8.990;2022-10-15T03:38:52;20.90;66.70
12769;DHT22;6448;48.916;8.990;2022-10-15T03:39:54;20.60;66.50
12769;DHT22;6448;48.916;8.990;2022-10-15T03:40:55;20.70;66.60
12769;DHT22;6448;48.916;8.990;2022-10-15T03:42:10;20.70;66.60
12769;DHT22;6448;48.916;8.990;2022-10-15T03:43:18;20.70;66.60
12769;DHT22;6448;48.916;8.990;2022-10-15T03:44:20;20.70;66.60
12769;DHT22;6448;48.916;8.990;2022-10-15T03:45:32;20.80;66.80
12769;DHT22;6448;48.916;8.990;2022-10-15T03:46:47;20.70;66.70
12769;DHT22;6448;48.916;8.990;2022-10-15T03:47:51;20.70;66.70
12769;DHT22;6448;48.916;8.990;2022-10-15T03:48:53;20.90;66.80
12769;DHT22;6448;48.916;8.990;2022-10-15T03:49:54;20.80;66.80
12769;DHT22;6448;48.916;8.990;2022-10-15T03:50:56;20.70;66.70
12769;DHT22;6448;48.916;8.990;2022-10-15T03:51:58;20.70;66.80
12769;DHT22;6448;48.916;8.990;2022-10-15T03:53:02;20.80;66.90
12769;DHT22;6448;48.916;8.990;2022-10-15T03:54:04;20.70;66.90
12769;DHT22;6448;48.916;8.990;2022-10-15T03:55:12;20.70;67.00
12769;DHT22;6448;48.916;8.990;2022-10-15T03:56:16;20.70;67.00
12769;DHT22;6448;48.916;8.990;2022-10-15T03:57:16;20.70;67.00
12769;DHT22;6448;48.916;8.990;2022-10-15T03:58:23;20.60;67.00
12769;DHT22;6448;48.916;8.990;2022-10-15T03:59:29;20.80;67.30
12769;DHT22;6448;48.916;8.990;2022-10-15T04:00:34;20.60;67.20
12769;DHT22;6448;48.916;8.990;2022-10-15T04:01:36;20.60;67.10
12769;DHT22;6448;48.916;8.990;2022-10-15T04:02:39;20.80;67.30
12769;DHT22;6448;48.916;8.990;2022-10-15T04:03:52;20.60;67.10
12769;DHT22;6448;48.916;8.990;2022-10-15T04:04:58;20.60;67.10
12769;DHT22;6448;48.916;8.990;2022-10-15T04:05:59;20.60;67.20
12769;DHT22;6448;48.916;8.990;2022-10-15T04:07:04;20.70;67.20
12769;DHT22;6448;48.916;8.990;2022-10-15T04:08:06;20.60;67.10
12769;DHT22;6448;48.916;8.990;2022-10-15T04:09:13;20.60;67.10
12769;DHT22;6448;48.916;8.990;2022-10-15T04:10:14;20.60;67.00
12769;DHT22;6448;48.916;8.990;2022-10-15T04:11:16;20.60;67.00
12769;DHT22;6448;48.916;8.990;2022-10-15T04:12:18;20.60;67.00
12769;DHT22;6448;48.916;8.990;2022-10-15T04:13:20;20.60;67.00
12769;DHT22;6448;48.916;8.990;2022-10-15T04:14:21;20.60;67.00
12769;DHT22;6448;48.916;8.990;2022-10-15T04:15:23;20.60;67.00
12769;DHT22;6448;48.916;8.990;2022-10-15T04:16:30;20.60;67.00
12769;DHT22;6448;48.916;8.990;2022-10-15T04:17:34;20.60;67.00
12769;DHT22;6448;48.916;8.990;2022-10-15T04:18:36;20.60;67.10
12769;DHT22;6448;48.916;8.990;2022-10-15T04:19:38;20.50;67.10
12769;DHT22;6448;48.916;8.990;2022-10-15T04:20:40;20.60;67.20
12769;DHT22;6448;48.916;8.990;2022-10-15T04:21:46;20.60;67.30
12769;DHT22;6448;48.916;8.990;2022-10-15T04:23:02;20.70;67.40
12769;DHT22;6448;48.916;8.990;2022-10-15T04:24:05;20.50;67.30
12769;DHT22;6448;48.916;8.990;2022-10-15T04:25:10;20.60;67.30
12769;DHT22;6448;48.916;8.990;2022-10-15T04:26:12;20.60;67.40
12769;DHT22;6448;48.916;8.990;2022-10-15T04:27:13;20.60;67.40
12769;DHT22;6448;48.916;8.990;2022-10-15T04:28:15;20.60;67.40
12769;DHT22;6448;48.916;8.990;2022-10-15T04:29:16;20.60;67.40
12769;DHT22;6448;48.916;8.990;2022-10-15T04:30:18;20.60;67.50
12769;DHT22;6448;48.916;8.990;2022-10-15T04:31:26;20.90;67.70
12769;DHT22;6448;48.916;8.990;2022-10-15T04:32:28;20.60;67.50
12769;DHT22;6448;48.916;8.990;2022-10-15T04:33:29;20.80;67.60
12769;DHT22;6448;48.916;8.990;2022-10-15T04:34:33;20.60;67.50
12769;DHT22;6448;48.916;8.990;2022-10-15T04:35:34;20.60;67.50
12769;DHT22;6448;48.916;8.990;2022-10-15T04:36:42;20.60;67.50
12769;DHT22;6448;48.916;8.990;2022-10-15T04:37:48;20.70;67.70
12769;DHT22;6448;48.916;8.990;2022-10-15T04:38:51;20.60;67.50
12769;DHT22;6448;48.916;8.990;2022-10-15T04:40:27;20.60;67.60
12769;DHT22;6448;48.916;8.990;2022-10-15T04:41:29;20.60;67.50
12769;DHT22;6448;48.916;8.990;2022-10-15T04:42:38;20.60;67.50
12769;DHT22;6448;48.916;8.990;2022-10-15T04:43:40;20.60;67.50
12769;DHT22;6448;48.916;8.990;2022-10-15T04:44:42;20.70;67.50
12769;DHT22;6448;48.916;8.990;2022-10-15T04:45:46;20.70;67.50
12769;DHT22;6448;48.916;8.990;2022-10-15T04:46:52;20.60;67.40
12769;DHT22;6448;48.916;8.990;2022-10-15T04:48:02;20.80;67.50
12769;DHT22;6448;48.916;8.990;2022-10-15T04:49:03;20.60;67.40
12769;DHT22;6448;48.916;8.990;2022-10-15T04:50:05;20.60;67.40
12769;DHT22;6448;48.916;8.990;2022-10-15T04:51:26;20.60;67.30
12769;DHT22;6448;48.916;8.990;2022-10-15T04:52:45;20.50;67.30
12769;DHT22;6448;48.916;8.990;2022-10-15T04:53:48;20.70;67.30
12769;DHT22;6448;48.916;8.990;2022-10-15T04:54:51;20.60;67.30
12769;DHT22;6448;48.916;8.990;2022-10-15T04:55:52;20.70;67.30
12769;DHT22;6448;48.916;8.990;2022-10-15T04:56:54;20.70;67.30
12769;DHT22;6448;48.916;8.990;2022-10-15T04:57:55;20.90;67.40
12769;DHT22;6448;48.916;8.990;2022-10-15T04:59:05;20.70;67.20
12769;DHT22;6448;48.916;8.990;2022-10-15T05:00:12;20.70;67.20
12769;DHT22;6448;48.916;8.990;2022-10-15T05:01:33;20.70;67.20
12769;DHT22;6448;48.916;8.990;2022-10-15T05:02:41;20.70;67.10
12769;DHT22;6448;48.916;8.990;2022-10-15T05:04:09;20.70;67.10
12769;DHT22;6448;48.916;8.990;2022-10-15T05:05:14;20.70;67.00
12769;DHT22;6448;48.916;8.990;2022-10-15T05:06:23;20.70;66.90
12769;DHT22;6448;48.916;8.990;2022-10-15T05:07:30;20.80;67.00
12769;DHT22;6448;48.916;8.990;2022-10-15T05:08:33;20.70;66.90
12769;DHT22;6448;48.916;8.990;2022-10-15T05:09:50;20.70;66.90
12769;DHT22;6448;48.916;8.990;2022-10-15T05:10:51;20.90;67.00
12769;DHT22;6448;48.916;8.990;2022-10-15T05:11:53;20.80;66.90
12769;DHT22;6448;48.916;8.990;2022-10-15T05:12:55;20.90;67.00
12769;DHT22;6448;48.916;8.990;2022-10-15T05:14:03;20.70;66.80
12769;DHT22;6448;48.916;8.990;2022-10-15T05:15:07;20.70;66.80
12769;DHT22;6448;48.916;8.990;2022-10-15T05:16:11;20.70;66.70
12769;DHT22;6448;48.916;8.990;2022-10-15T05:17:13;20.80;66.70
12769;DHT22;6448;48.916;8.990;2022-10-15T05:18:16;20.80;66.60
12769;DHT22;6448;48.916;8.990;2022-10-15T05:19:24;20.70;66.60
12769;DHT22;6448;48.916;8.990;2022-10-15T05:20:25;20.70;66.50
12769;DHT22;6448;48.916;8.990;2022-10-15T05:21:28;20.70;66.50
12769;DHT22;6448;48.916;8.990;2022-10-15T05:22:33;20.70;66.40
12769;DHT22;6448;48.916;8.990;2022-10-15T05:23:36;20.60;66.40
12769;DHT22;6448;48.916;8.990;2022-10-15T05:24:47;20.70;66.40
12769;DHT22;6448;48.916;8.990;2022-10-15T05:26:07;20.60;66.40
12769;DHT22;6448;48.916;8.990;2022-10-15T05:27:08;20.70;66.40
12769;DHT22;6448;48.916;8.990;2022-10-15T05:28:12;20.70;66.40
12769;DHT22;6448;48.916;8.990;2022-10-15T05:29:13;20.70;66.40
12769;DHT22;6448;48.916;8.990;2022-10-15T05:30:15;20.60;66.30
12769;DHT22;6448;48.916;8.990;2022-10-15T05:31:23;20.60;66.30
12769;DHT22;6448;48.916;8.990;2022-10-15T05:32:33;20.80;66.40
12769;DHT22;6448;48.916;8.990;2022-10-15T05:33:36;20.60;66.30
12769;DHT22;6448;48.916;8.990;2022-10-15T05:34:37;20.60;66.40
12769;DHT22;6448;48.916;8.990;2022-10-15T05:35:45;20.60;66.50
12769;DHT22;6448;48.916;8.990;2022-10-15T05:36:46;20.70;66.50
12769;DHT22;6448;48.916;8.990;2022-10-15T05:37:49;20.60;66.50
12769;DHT22;6448;48.916;8.990;2022-10-15T05:38:52;20.60;66.60
12769;DHT22;6448;48.916;8.990;2022-10-15T05:39:54;20.60;66.60
12769;DHT22;6448;48.916;8.990;2022-10-15T05:40:55;20.60;66.70
12769;DHT22;6448;48.916;8.990;2022-10-15T05:42:00;20.60;66.80
12769;DHT22;6448;48.916;8.990;2022-10-15T05:43:10;20.80;67.70
12769;DHT22;6448;48.916;8.990;2022-10-15T05:44:12;20.60;66.80
12769;DHT22;6448;48.916;8.990;2022-10-15T05:45:13;20.60;66.80
12769;DHT22;6448;48.916;8.990;2022-10-15T05:51:23;20.60;67.10
12769;DHT22;6448;48.916;8.990;2022-10-15T05:53:50;20.70;67.20
12769;DHT22;6448;48.916;8.990;2022-10-15T05:54:53;20.60;67.10
12769;DHT22;6448;48.916;8.990;2022-10-15T06:00:23;20.60;66.90
12769;DHT22;6448;48.916;8.990;2022-10-15T06:04:02;20.60;66.80
12769;DHT22;6448;48.916;8.990;2022-10-15T06:05:04;20.70;66.60
12769;DHT22;6448;48.916;8.990;2022-10-15T06:06:13;20.70;66.60
12769;DHT22;6448;48.916;8.990;2022-10-15T06:07:19;20.60;66.60
12769;DHT22;6448;48.916;8.990;2022-10-15T06:08:23;20.70;66.60
12769;DHT22;6448;48.916;8.990;2022-10-15T06:09:28;20.70;66.50
12769;DHT22;6448;48.916;8.990;2022-10-15T06:10:34;20.70;66.50
12769;DHT22;6448;48.916;8.990;2022-10-15T06:11:36;20.70;66.50
12769;DHT22;6448;48.916;8.990;2022-10-15T06:12:37;20.70;66.50
12769;DHT22;6448;48.916;8.990;2022-10-15T06:13:40;20.70;66.50
12769;DHT22;6448;48.916;8.990;2022-10-15T06:14:40;20.70;66.50
12769;DHT22;6448;48.916;8.990;2022-10-15T06:15:44;20.70;66.40
12769;DHT22;6448;48.916;8.990;2022-10-15T06:16:45;20.40;66.20
12769;DHT22;6448;48.916;8.990;2022-10-15T06:17:51;20.70;66.40
12769;DHT22;6448;48.916;8.990;2022-10-15T06:18:53;20.80;66.40
12769;DHT22;6448;48.916;8.990;2022-10-15T06:19:54;20.70;66.30
12769;DHT22;6448;48.916;8.990;2022-10-15T06:20:55;20.70;66.30
12769;DHT22;6448;48.916;8.990;2022-10-15T06:21:57;20.80;66.40
12769;DHT22;6448;48.916;8.990;2022-10-15T06:22:58;20.70;66.30
12769;DHT22;6448;48.916;8.990;2022-10-15T06:24:00;20.80;66.40
12769;DHT22;6448;48.916;8.990;2022-10-15T06:25:01;20.70;66.30
12769;DHT22;6448;48.916;8.990;2022-10-15T06:26:03;20.60;66.30
12769;DHT22;6448;48.916;8.990;2022-10-15T06:27:04;20.70;66.40
12769;DHT22;6448;48.916;8.990;2022-10-15T06:28:06;20.70;66.30
12769;DHT22;6448;48.916;8.990;2022-10-15T06:29:15;20.70;66.30
12769;DHT22;6448;48.916;8.990;2022-10-15T06:30:17;20.90;66.40
12769;DHT22;6448;48.916;8.990;2022-10-15T06:31:19;20.80;66.40
12769;DHT22;6448;48.916;8.990;2022-10-15T06:32:21;20.80;66.30
12769;DHT22;6448;48.916;8.990;2022-10-15T06:33:22;20.70;66.30
12769;DHT22;6448;48.916;8.990;2022-10-15T06:34:23;20.80;66.40
12769;DHT22;6448;48.916;8.990;2022-10-15T06:35:25;20.40;66.10
12769;DHT22;6448;48.916;8.990;2022-10-15T06:36:29;20.60;66.40
12769;DHT22;6448;48.916;8.990;2022-10-15T06:37:31;20.60;66.40
12769;DHT22;6448;48.916;8.990;2022-10-15T06:38:32;20.60;66.40
12769;DHT22;6448;48.916;8.990;2022-10-15T06:39:34;20.90;66.70
12769;DHT22;6448;48.916;8.990;2022-10-15T06:40:36;20.30;66.30
12769;DHT22;6448;48.916;8.990;2022-10-15T06:41:38;20.60;66.50
12769;DHT22;6448;48.916;8.990;2022-10-15T06:42:39;20.70;66.50
12769;DHT22;6448;48.916;8.990;2022-10-15T06:43:41;20.60;66.50
12769;DHT22;6448;48.916;8.990;2022-10-15T06:44:42;20.70;66.60
12769;DHT22;6448;48.916;8.990;2022-10-15T06:45:44;20.60;66.50
12769;DHT22;6448;48.916;8.990;2022-10-15T06:46:52;20.60;66.60
12769;DHT22;6448;48.916;8.990;2022-10-15T06:47:54;20.60;66.70
12769;DHT22;6448;48.916;8.990;2022-10-15T06:48:55;20.70;66.80
12769;DHT22;6448;48.916;8.990;2022-10-15T06:49:56;20.60;66.70
12769;DHT22;6448;48.916;8.990;2022-10-15T06:50:58;20.60;66.60
12769;DHT22;6448;48.916;8.990;2022-10-15T06:52:00;20.60;66.60
12769;DHT22;6448;48.916;8.990;2022-10-15T06:53:01;20.60;66.60
12769;DHT22;6448;48.916;8.990;2022-10-15T06:54:03;20.80;66.80
12769;DHT22;6448;48.916;8.990;2022-10-15T06:55:04;20.70;66.70
12769;DHT22;6448;48.916;8.990;2022-10-15T06:56:06;20.60;66.80
12769;DHT22;6448;48.916;8.990;2022-10-15T06:57:11;20.60;66.80
12769;DHT22;6448;48.916;8.990;2022-10-15T06:58:12;20.70;66.80
12769;DHT22;6448;48.916;8.990;2022-10-15T06:59:14;20.70;66.90
12769;DHT22;6448;48.916;8.990;2022-10-15T07:00:16;20.70;66.90
12769;DHT22;6448;48.916;8.990;2022-10-15T07:01:17;20.70;66.90
12769;DHT22;6448;48.916;8.990;2022-10-15T07:02:21;20.70;66.90
12769;DHT22;6448;48.916;8.990;2022-10-15T07:03:22;20.70;67.30
12769;DHT22;6448;48.916;8.990;2022-10-15T07:04:23;20.60;66.90
12769;DHT22;6448;48.916;8.990;2022-10-15T07:05:24;20.90;67.00
12769;DHT22;6448;48.916;8.990;2022-10-15T07:06:26;20.70;66.90
12769;DHT22;6448;48.916;8.990;2022-10-15T07:07:27;20.70;66.80
12769;DHT22;6448;48.916;8.990;2022-10-15T07:08:29;20.70;66.90
12769;DHT22;6448;48.916;8.990;2022-10-15T07:09:30;20.70;66.90
12769;DHT22;6448;48.916;8.990;2022-10-15T07:10:31;20.80;66.90